Aviation Digital Data Service (ADDS)

Output produced by METARs form (0951 UTC 23 April 2017)
found at http://www.aviationweather.gov/adds/metars/
 
LUKK 230930Z 34008KT 320V020 9999 BKN045 06/02 Q1010 R08/D TEMPO SCT025CB
TAF LUKK 230520Z 2306/2406 30010KT 9999 BKN040 
     TEMPO 2306/2315 5000 SHRA BKN015 BKN020CB
       
LUKK 230930Z 34008KT 320V020 9999 BKN045 06/02 Q1010 R08/D TEMPO SCT025CB
TAF LUKK 230520Z 2306/2406 30010KT 9999 BKN040 
     TEMPO 2306/2315 5000 SHRA BKN015 BKN020CB